Home   Weather   USA   Chesapeake   Past weeks
Flag for USA

Past Weather in Chesapeake, Virginia, USA — Yesterday and Last 2 Weeks

Currently: 73 °F. Clear. (Weather station: Chesapeake Municipal Airport, USA). See more current weather

Past Weather in Chesapeake — Graph

°F

Chesapeake Temperature Yesterday

Maximum temperature yesterday: 87 °F (at 4:15 pm)
Minimum temperature yesterday: 63 °F (at 5:55 am)
Average temperature yesterday: 75 °F

High & Low Weather Summary for the Past Weeks

 TemperatureHumidityPressure
High89 °F (Jun 6, 3:35 pm)97% (Jun 3, 1:35 am)30.33 "Hg (Jun 3, 1:35 am)
Low48 °F (May 31, 6:15 am)43% (Jun 1, 2:35 pm)29.68 "Hg (Jun 12, 3:15 am)
Average72 °F82%30.03 "Hg
* Reported May 31 1:35 am — Jun 15 1:35 am, Chesapeake. Weather by CustomWeather, © 2021

Note: Actual official high and low records may vary slightly from our data, if they occured in-between our weather recording intervals... More about our weather records

Chesapeake Weather History for the Previous 24 Hours

Scroll right to see more
 ConditionsComfort  
Time TempWeatherWind HumidityBarometerVisibility
1:35 am
Tue, Jun 15
74 °FClear.6 mph90%29.79 "Hg10 mi
1:15 am74 °FClear.9 mph89%29.80 "Hg10 mi
12:55 am75 °FClear.8 mph90%29.80 "Hg10 mi
12:35 am75 °FPassing clouds.8 mph91%29.80 "Hg10 mi
12:15 am75 °FPassing clouds.9 mph90%29.79 "Hg7 mi
11:55 pm
Mon, Jun 14
75 °FPassing clouds.10 mph89%29.79 "Hg7 mi
11:35 pm75 °FClear.9 mph89%29.79 "Hg10 mi
11:15 pm75 °FClear.8 mph89%29.80 "Hg10 mi
10:55 pm76 °FClear.7 mph88%29.80 "Hg10 mi
10:35 pm76 °FClear.6 mph87%29.81 "Hg7 mi
10:15 pm76 °FClear.8 mph85%29.81 "Hg7 mi
9:55 pm76 °FClear.8 mph83%29.81 "Hg7 mi
9:35 pm77 °FClear.6 mph80%29.80 "Hg10 mi
9:15 pm77 °FClear.6 mph76%29.80 "Hg10 mi
8:55 pm78 °FClear.5 mph74%29.80 "Hg7 mi
8:35 pm79 °FClear.3 mph71%29.80 "Hg10 mi
8:15 pm79 °FSunny.3 mph70%29.79 "Hg10 mi
7:55 pm81 °FSunny.5 mph65%29.79 "Hg7 mi
7:35 pm82 °FSunny.5 mph61%29.79 "Hg10 mi
7:15 pm83 °FSunny.5 mph60%29.78 "Hg7 mi
6:55 pm84 °FSunny.8 mph55%29.77 "Hg7 mi
6:35 pm85 °FScattered clouds.8 mph54%29.77 "Hg7 mi
6:15 pm86 °FScattered clouds.7 mph52%29.78 "Hg7 mi
5:55 pm84 °FSunny.5 mph56%29.79 "Hg7 mi
5:35 pm87 °FSunny.5 mph47%29.79 "Hg10 mi
5:15 pm87 °FScattered clouds.5 mph48%29.79 "Hg7 mi
4:55 pm87 °FScattered clouds.7 mph49%29.79 "Hg10 mi
4:35 pm86 °FScattered clouds.6 mph47%29.80 "Hg7 mi
4:15 pm87 °FScattered clouds.8 mph47%29.80 "Hg7 mi
3:55 pm86 °FSunny.3 mph45%29.81 "Hg10 mi
2:55 pm86 °FSunny.6 mph47%29.82 "Hg7 mi
2:35 pm86 °FSunny.5 mph46%29.83 "Hg10 mi
2:15 pm86 °FScattered clouds.No wind46%29.83 "Hg7 mi
1:55 pm84 °FScattered clouds.3 mph53%29.84 "Hg10 mi
1:35 pm85 °FSunny.3 mph54%29.84 "Hg7 mi
1:15 pm84 °FSunny.5 mph54%29.84 "Hg10 mi
12:55 pm83 °FSunny.6 mph56%29.85 "Hg7 mi
12:35 pm83 °FSunny.5 mph52%29.86 "Hg10 mi
12:15 pm83 °FSunny.7 mph57%29.87 "Hg7 mi
11:55 am81 °FSunny.No wind58%29.87 "Hg7 mi
11:35 am81 °FScattered clouds.No wind61%29.87 "Hg10 mi
11:15 am81 °FScattered clouds.No wind59%29.87 "Hg7 mi
10:55 am81 °FPartly sunny.No wind60%29.87 "Hg7 mi
10:35 am80 °FScattered clouds.3 mph71%29.87 "Hg7 mi
10:15 am78 °FScattered clouds.5 mph74%29.87 "Hg7 mi
9:55 am77 °FScattered clouds.3 mph77%29.87 "Hg10 mi
9:35 am76 °FSunny.No wind80%29.87 "Hg7 mi
9:15 am75 °FSunny.No wind83%29.88 "Hg5 mi
8:35 am72 °FSunny.No wind87%29.88 "Hg7 mi
8:15 am71 °FSunny.No wind88%29.88 "Hg7 mi
7:55 am69 °FFog.No wind91%29.87 "Hg5 mi
7:15 am66 °FSunny.No wind92%29.87 "Hg7 mi
6:55 am65 °FFog.No wind93%29.87 "Hg4 mi
6:35 am63 °FSunny.No wind96%29.87 "Hg7 mi
6:15 am63 °FSunny.No wind96%29.87 "Hg7 mi
5:55 am63 °FSunny.No wind96%29.87 "Hg7 mi
5:35 am63 °FClear.No wind96%29.87 "Hg7 mi
5:15 am63 °FClear.No wind95%29.88 "Hg7 mi
4:55 am64 °FClear.No wind95%29.88 "Hg7 mi
4:35 am64 °FClear.No wind94%29.88 "Hg7 mi
4:15 am64 °FClear.No wind95%29.88 "Hg7 mi
3:55 am64 °FClear.No wind94%29.87 "Hg7 mi
3:35 am64 °FClear.3 mph95%29.87 "Hg7 mi
3:15 am64 °FClear.No wind92%29.88 "Hg7 mi
2:55 am64 °FClear.No wind93%29.87 "Hg7 mi
2:35 am64 °FClear.No wind93%29.86 "Hg7 mi
2:15 am64 °FClear.No wind95%29.86 "Hg7 mi
Weather by CustomWeather, © 2021

See weather overview